Latest Weather Observations for Kingscote

IDS60801

Issued at 11:05 pm CDT Saturday 22 November 2014 (issued every 30 minutes, with the page automatically refreshed every 10 minutes)

About weather observations | Map of weather stations | Latest weather observations for SA | Other Formats
Station Details ID: 022841 Name: KINGSCOTE AERO Lat: -35.71 Lon: 137.52 Height: 6.23 m
Data from the previous 72 hours. | See also: Recent months at Kingscote
Date/Time
CDT
Temp
°C
App
Temp
°C
Dew
Point
Rel
Hum
%
Delta-T
°C
Wind Press
QNH
hPa
Press
MSL
hPa
Rain
since 9 am
mm
Dir
 
Spd
km/h
Gust
km/h
Spd
kts
Gust
kts
22/11:00pm 13.0 13.2 10.7 86 1.2 SW 0 0 0 0 1012.9 1012.9 0.0
22/10:30pm 13.4 12.6 11.1 86 1.2 SW 6 7 3 4 1012.8 1012.8 0.0
22/10:00pm 13.8 12.5 11.1 84 1.4 SW 9 11 5 6 1012.5 1012.5 0.0
22/09:30pm 14.8 13.5 11.4 80 1.8 SSW 9 11 5 6 1012.2 1012.2 0.0
22/09:00pm 16.0 13.7 11.8 76 2.3 SW 15 20 8 11 1011.8 1011.8 0.0
22/08:30pm 16.8 13.6 11.3 70 3.0 SSW 19 24 10 13 1011.4 1011.4 0.0
22/08:00pm 17.7 13.0 10.8 64 3.7 SSW 26 33 14 18 1010.4 1010.4 0.0
22/07:30pm 19.1 13.1 10.9 59 4.5 SSW 33 48 18 26 1009.5 1009.5 0.0
22/07:00pm 20.2 14.9 11.4 57 4.8 SSW 30 43 16 23 1009.0 1009.0 0.0
22/06:30pm 21.6 16.6 11.0 51 5.9 S 28 39 15 21 1008.6 1008.6 0.0
22/06:00pm 22.2 17.0 11.6 51 5.9 SSW 30 41 16 22 1008.2 1008.2 0.0
22/05:30pm 23.6 18.7 12.6 50 6.3 S 30 39 16 21 1007.9 1007.9 0.0
22/05:00pm 24.8 20.9 14.3 52 6.2 S 28 35 15 19 1007.4 1007.4 0.0
22/04:30pm 24.4 21.2 15.3 57 5.5 S 26 39 14 21 1007.2 1007.2 0.0
22/04:00pm 24.0 21.1 15.0 57 5.4 S 24 33 13 18 1007.2 1007.2 0.0
22/03:30pm 24.4 20.8 14.2 53 6.0 S 26 32 14 17 1007.0 1007.0 0.0
22/03:00pm 26.8 22.5 10.9 37 9.0 WNW 24 35 13 19 1006.6 1006.6 0.0
22/02:30pm 28.2 22.8 10.9 34 9.9 WNW 30 39 16 21 1006.7 1006.7 0.0
22/02:00pm 27.5 22.7 11.5 37 9.2 WNW 28 41 15 22 1007.0 1007.0 0.0
22/01:30pm 27.3 23.0 12.1 39 8.8 W 26 35 14 19 1006.5 1006.5 0.0
22/01:00pm 26.4 22.7 12.8 43 7.9 WNW 24 35 13 19 1006.8 1006.8 0.0
22/12:30pm 26.4 23.4 12.5 42 8.1 NW 20 30 11 16 1005.9 1005.9 0.0
22/12:00pm 26.1 22.9 14.2 48 7.1 NNW 24 41 13 22 1006.1 1006.1 0.0
22/11:30am 26.1 21.4 13.2 44 7.6 NNW 30 41 16 22 1006.4 1006.4 0.0
22/11:00am 27.0 22.1 12.6 41 8.4 NW 30 41 16 22 1006.3 1006.3 0.0
22/10:30am 26.7 22.8 12.0 40 8.5 NW 24 37 13 20 1006.2 1006.2 0.0
22/10:00am 25.4 21.1 11.9 43 7.7 NNW 26 33 14 18 1006.1 1006.1 0.0
22/09:30am 24.4 20.0 11.7 45 7.2 NNW 26 37 14 20 1006.3 1006.3 0.0
22/09:00am 23.8 20.2 13.1 51 6.2 NNW 24 33 13 18 1006.3 1006.3 0.0
22/08:30am 22.9 19.2 12.8 53 5.8 NNW 24 30 13 16 1005.9 1005.9 0.0
22/08:00am 22.0 19.6 12.8 56 5.2 N 17 24 9 13 1006.0 1006.0 0.0
22/07:30am 19.4 18.1 13.8 70 3.2 N 13 15 7 8 1006.3 1006.3 0.0
22/07:00am 16.6 16.7 13.9 84 1.5 NNW 6 11 3 6 1006.2 1006.2 0.0
22/06:30am 16.5 15.7 13.0 80 2.0 N 9 15 5 8 1006.1 1006.1 0.0
22/06:00am 16.6 16.1 12.6 77 2.2 E 7 9 4 5 1005.6 1005.6 0.0
22/05:30am 17.0 16.6 12.3 74 2.6 ESE 6 9 3 5 1005.9 1005.9 0.0
22/05:00am 17.8 17.3 12.5 71 2.9 N 7 9 4 5 1006.3 1006.3 0.0
22/04:30am 17.6 16.8 11.6 68 3.3 E 7 11 4 6 1005.6 1005.6 0.0
22/04:00am 17.9 17.0 11.5 66 3.5 SSW 7 11 4 6 1006.4 1006.4 0.0
22/03:30am 19.0 15.6 11.3 61 4.2 S 20 28 11 15 1006.5 1006.5 0.0
22/03:00am 20.4 16.5 9.6 50 5.8 SSE 20 28 11 15 1006.6 1006.6 0.0
22/02:30am 18.2 15.7 11.0 63 3.9 S 15 20 8 11 1005.9 1005.9 0.0
22/02:00am 16.0 15.0 12.2 78 2.1 SSW 9 13 5 7 1005.6 1005.6 0.0
22/01:30am 17.1 16.1 12.2 73 2.7 NE 9 13 5 7 1005.3 1005.3 0.0
22/01:00am 16.3 15.8 12.8 80 1.9 N 7 9 4 5 1005.7 1005.7 0.0
22/12:30am 16.3 14.5 12.1 76 2.3 NE 13 17 7 9 1005.9 1005.9 0.0
22/12:00am 16.0 15.2 12.9 82 1.7 NNE 9 13 5 7 1007.1 1007.1 0.0
 
Date/Time
CDT
Temp
°C
App
Temp
°C
Dew
Point
Rel
Hum
%
Delta-T
°C
Wind Press
QNH
hPa
Press
MSL
hPa
Rain
since 9 am
mm
Dir
 
Spd
km/h
Gust
km/h
Spd
kts
Gust
kts
21/11:30pm 14.4 15.0 11.9 85 1.4 CALM 0 0 0 0 1007.8 1007.8 0.0
21/11:00pm 15.6 16.1 12.7 83 1.6 N 2 6 1 3 1008.5 1008.5 0.0
21/10:30pm 16.4 16.0 12.9 80 1.9 NNE 7 9 4 5 1009.0 1009.0 0.0
21/10:00pm 16.5 15.9 12.3 76 2.3 NNE 7 9 4 5 1009.1 1009.1 0.0
21/09:30pm 16.6 15.4 12.8 78 2.1 ENE 11 15 6 8 1009.3 1009.3 0.0
21/09:00pm 16.6 15.5 13.1 80 2.0 NE 11 13 6 7 1009.5 1009.5 0.0
21/08:30pm 17.2 15.8 13.5 79 2.1 NE 13 15 7 8 1009.6 1009.6 0.0
21/08:00pm 18.0 16.6 13.3 74 2.7 NE 13 17 7 9 1009.9 1009.9 0.0
21/07:30pm 18.9 16.7 13.3 70 3.2 NE 17 20 9 11 1010.0 1010.0 0.0
21/07:00pm 20.0 17.2 12.7 63 4.1 NE 19 24 10 13 1009.8 1009.8 0.0
21/06:30pm 22.3 20.2 11.1 49 6.2 N 13 20 7 11 1009.7 1009.7 0.0
21/06:00pm 22.0 20.8 11.7 52 5.8 N 9 13 5 7 1009.9 1009.9 0.0
21/05:30pm 21.1 19.5 11.7 55 5.2 NW 11 17 6 9 1010.2 1010.2 0.0
21/05:00pm 20.4 18.5 11.9 58 4.7 NNW 13 19 7 10 1010.3 1010.3 0.0
21/04:30pm 20.6 17.7 11.0 54 5.3 NNW 17 24 9 13 1010.2 1010.2 0.0
21/04:00pm 21.6 18.9 11.6 53 5.6 NNW 17 24 9 13 1010.7 1010.7 0.0
21/03:30pm 20.8 17.4 11.4 55 5.2 NNW 20 28 11 15 1011.0 1011.0 0.0
21/03:00pm 20.7 17.5 11.1 54 5.3 N 19 32 10 17 1011.3 1011.3 0.0
21/02:30pm 21.6 18.7 11.0 51 5.8 N 17 30 9 16 1011.6 1011.6 0.0
21/02:00pm 21.0 17.2 9.9 49 6.0 NNW 20 26 11 14 1011.9 1011.9 0.0
21/01:30pm 21.6 17.0 9.8 47 6.4 NNW 24 35 13 19 1011.8 1011.8 0.0
21/01:00pm 22.4 18.2 9.6 44 6.9 NNW 22 39 12 21 1012.4 1012.4 0.0
21/12:30pm 21.6 17.9 10.1 48 6.2 NW 20 37 11 20 1012.5 1012.5 0.0
21/12:00pm 20.5 17.0 10.3 52 5.5 NNW 19 26 10 14 1012.6 1012.6 0.0
21/11:30am 19.7 16.1 10.7 56 4.9 NNW 20 32 11 17 1012.6 1012.6 0.0
21/11:00am 20.3 17.4 11.0 55 5.1 N 17 28 9 15 1012.6 1012.6 0.0
21/10:30am 19.9 16.7 10.0 53 5.3 WNW 17 28 9 15 1012.7 1012.7 0.0
21/10:00am 18.0 14.1 9.4 57 4.5 NW 20 28 11 15 1013.0 1013.0 0.0
21/09:30am 18.2 16.1 9.8 58 4.4 WNW 11 22 6 12 1012.9 1012.9 0.0
21/09:00am 17.8 15.6 10.7 63 3.8 N 13 20 7 11 1013.0 1013.0 1.2
21/08:30am 15.7 15.8 10.0 69 3.0 CALM 0 0 0 0 1013.0 1013.0 1.2
21/08:00am 13.3 13.4 10.1 81 1.7 CALM 0 0 0 0 1012.8 1012.8 1.2
21/07:30am 11.5 11.6 10.1 91 0.7 CALM 0 0 0 0 1012.5 1012.5 1.2
21/07:00am 10.5 10.5 9.7 95 0.4 CALM 0 0 0 0 1012.1 1012.1 1.2
21/06:30am 8.0 7.3 7.1 94 0.4 CALM 0 0 0 0 1012.2 1012.2 1.2
21/06:00am 8.3 7.7 7.4 94 0.4 CALM 0 0 0 0 1011.8 1011.8 1.2
21/05:30am 9.0 6.5 8.2 95 0.4 SW 11 13 6 7 1012.0 1012.0 1.2
21/05:00am 9.0 8.5 7.9 93 0.5 CALM 0 0 0 0 1011.9 1011.9 1.2
21/04:30am 9.9 8.3 8.8 93 0.5 WNW 7 9 4 5 1011.7 1011.7 1.2
21/04:00am 9.9 8.0 9.1 95 0.4 W 9 11 5 6 1012.0 1012.0 1.2
21/03:30am 9.1 7.0 8.3 95 0.4 WSW 9 11 5 6 1012.2 1012.2 1.2
21/03:00am 9.2 7.1 8.3 94 0.4 W 9 9 5 5 1012.2 1012.2 1.2
21/02:30am 9.5 7.4 8.4 93 0.5 WNW 9 9 5 5 1012.0 1012.0 1.2
21/02:00am 9.9 7.9 8.7 92 0.6 WNW 9 11 5 6 1012.0 1012.0 1.2
21/01:30am 10.5 8.6 9.1 91 0.7 WNW 9 11 5 6 1011.9 1011.9 1.2
21/01:00am 11.5 9.8 9.8 89 0.9 WNW 9 11 5 6 1012.3 1012.3 1.2
21/12:30am 12.3 11.2 10.5 89 0.9 NW 7 9 4 5 1012.5 1012.5 1.2
21/12:00am 12.2 10.6 10.3 88 1.0 WNW 9 11 5 6 1012.5 1012.5 1.2
 
Date/Time
CDT
Temp
°C
App
Temp
°C
Dew
Point
Rel
Hum
%
Delta-T
°C
Wind Press
QNH
hPa
Press
MSL
hPa
Rain
since 9 am
mm
Dir
 
Spd
km/h
Gust
km/h
Spd
kts
Gust
kts
20/11:30pm 13.5 12.2 11.4 87 1.1 W 9 13 5 7 1012.5 1012.5 1.2
20/11:00pm 12.5 11.0 10.4 87 1.1 W 9 9 5 5 1012.3 1012.3 1.2
20/10:30pm 13.3 11.9 10.8 85 1.3 WSW 9 9 5 5 1012.1 1012.1 1.2
20/10:00pm 13.1 11.6 10.6 85 1.3 WSW 9 11 5 6 1012.0 1012.0 1.2
20/09:30pm 14.3 12.2 11.1 81 1.7 SW 13 19 7 10 1011.7 1011.7 1.2
20/09:00pm 15.7 13.1 11.9 78 2.1 SW 17 22 9 12 1011.5 1011.5 1.2
20/08:30pm 16.0 12.5 12.2 78 2.1 SW 22 28 12 15 1011.1 1011.1 1.2
20/08:00pm 16.3 13.5 12.7 79 2.0 SSW 19 24 10 13 1010.4 1010.4 1.2
20/07:30pm 16.3 12.3 13.0 81 1.8 SSW 26 37 14 20 1009.7 1009.7 1.2
20/07:00pm 17.1 12.9 13.4 79 2.1 SW 28 37 15 20 1009.0 1009.0 1.2
20/06:30pm 17.4 13.4 14.1 81 1.9 SSW 28 41 15 22 1008.5 1008.5 1.2
20/06:00pm 18.9 14.8 13.7 72 3.0 SW 28 37 15 20 1008.2 1008.2 1.2
20/05:30pm 20.1 15.5 13.6 66 3.7 SW 30 41 16 22 1007.7 1007.7 1.2
20/05:00pm 21.9 17.9 14.0 61 4.6 SSW 28 39 15 21 1007.4 1007.4 1.2
20/04:30pm 22.9 18.1 13.9 57 5.3 SSW 32 43 17 23 1007.0 1007.0 1.2
20/04:00pm 24.1 19.6 14.8 56 5.5 SSW 32 44 17 24 1006.5 1006.5 1.2
20/03:30pm 24.7 19.8 12.6 47 7.0 SSW 30 39 16 21 1006.5 1006.5 1.2
20/03:00pm 24.4 22.3 15.3 57 5.5 WNW 20 32 11 17 1006.3 1006.3 1.2
20/02:30pm 23.8 21.7 16.3 63 4.6 WNW 22 30 12 16 1006.5 1006.5 1.2
20/02:00pm 22.9 20.4 16.2 66 4.1 WNW 24 32 13 17 1006.5 1006.5 1.2
20/01:30pm 20.7 16.5 15.7 73 3.0 W 32 46 17 25 1007.2 1007.2 1.2
20/01:03pm 20.4 16.1 15.8 75 2.7 WNW 33 52 18 28 1007.2 1007.2 1.2
20/01:00pm 20.2 15.0 15.6 75 2.7 WNW 37 52 20 28 1007.3 1007.3 1.2
20/12:42pm 20.4 16.1 16.0 76 2.6 WNW 33 46 18 25 1007.2 1007.2 1.2
20/12:31pm 20.1 15.9 16.3 79 2.3 WNW 33 48 18 26 1007.1 1007.1 1.2
20/12:30pm 20.1 15.9 16.3 79 2.3 WNW 33 48 18 26 1007.1 1007.1 1.2
20/12:09pm 20.2 16.7 17.4 84 1.7 W 32 43 17 23 1006.6 1006.6 1.2
20/12:00pm 19.6 16.3 17.0 85 1.6 W 30 43 16 23 1006.5 1006.5 1.2
20/11:34am 18.8 15.2 17.3 91 0.9 WNW 32 46 17 25 1007.1 1007.1 1.2
20/11:30am 18.9 16.1 17.4 91 0.9 WNW 28 44 15 24 1007.1 1007.1 1.2
20/11:00am 19.5 17.2 17.5 88 1.2 WNW 26 35 14 19 1006.9 1006.9 0.4
20/10:30am 21.7 18.2 16.4 72 3.2 WNW 30 43 16 23 1006.9 1006.9 0.0
20/10:00am 22.1 17.7 15.7 67 3.8 WNW 33 46 18 25 1006.9 1006.9 0.0
20/09:30am 22.9 20.0 16.0 65 4.2 WNW 26 37 14 20 1006.7 1006.7 0.0
20/09:00am 22.7 20.0 15.5 64 4.3 WNW 24 41 13 22 1006.9 1006.9 0.0
20/08:30am 22.3 17.8 15.4 65 4.1 NW 33 46 18 25 1006.7 1006.7 0.0
20/08:00am 22.3 18.6 14.9 63 4.4 WNW 28 35 15 19 1006.2 1006.2 0.0
20/07:30am 22.3 18.7 15.2 64 4.2 WNW 28 37 15 20 1006.0 1006.0 0.0
20/07:00am 22.9 20.6 14.7 60 4.9 WNW 20 32 11 17 1005.5 1005.5 0.0
20/06:30am 23.1 20.1 14.7 59 5.0 W 24 33 13 18 1005.2 1005.2 0.0
20/06:00am 23.1 19.1 14.1 57 5.3 W 28 41 15 22 1004.7 1004.7 0.0
20/05:30am 23.4 20.7 13.6 54 5.7 W 20 32 11 17 1004.2 1004.2 0.0
20/05:00am 23.0 19.4 13.2 54 5.7 WNW 24 35 13 19 1004.1 1004.1 0.0
20/04:30am 24.0 19.9 12.6 49 6.6 WNW 26 43 14 23 1004.4 1004.4 0.0
20/04:12am 24.4 18.9 12.4 47 6.9 W 33 52 18 28 1004.3 1004.3 0.0
20/04:07am 24.3 18.1 12.6 48 6.7 W 37 52 20 28 1004.0 1004.0 0.0
20/04:00am 23.8 21.3 12.4 48 6.5 W 17 33 9 18 1004.2 1004.2 0.0
20/03:30am 22.8 20.6 10.9 47 6.6 W 13 20 7 11 1005.0 1005.0 0.0
20/03:00am 23.5 19.9 10.6 44 7.2 WNW 20 30 11 16 1005.6 1005.6 0.0
20/02:30am 24.4 20.7 9.6 39 8.1 WNW 19 28 10 15 1005.5 1005.5 0.0
20/02:00am 24.3 21.3 7.9 35 8.7 W 13 17 7 9 1005.3 1005.3 0.0
20/01:30am 24.4 20.5 9.6 39 8.1 NNW 20 28 11 15 1005.0 1005.0 0.0
20/01:00am 24.0 22.9 10.7 43 7.4 NNW 7 20 4 11 1005.3 1005.3 0.0
20/12:30am 20.9 20.0 11.3 54 5.3 ENE 7 9 4 5 1005.8 1005.8 0.0
20/12:00am 17.7 17.7 11.0 65 3.6 WSW 2 7 1 4 1006.2 1006.2 0.0
 
Date/Time
CDT
Temp
°C
App
Temp
°C
Dew
Point
Rel
Hum
%
Delta-T
°C
Wind Press
QNH
hPa
Press
MSL
hPa
Rain
since 9 am
mm
Dir
 
Spd
km/h
Gust
km/h
Spd
kts
Gust
kts
19/11:30pm 18.3 18.4 10.2 59 4.3 CALM 0 0 0 0 1006.4 1006.4 0.0

Other Formats:

Comma delimited format used in spreadsheet applications
http://www.bom.gov.au/fwo/IDS60801/IDS60801.95807.axf

JavaScript Object Notation format (JSON) in row-major order
http://www.bom.gov.au/fwo/IDS60801/IDS60801.95807.json